Time;durP1;ratioP1;P1;durP2;ratioP2;P2;SDS_P1;SDS_P2;PMS_P1;PMS_P2;Temp;Humidity;BMP_temperature;BMP_pressure;BME280_temperature;BME280_humidity;BME280_pressure;Samples;Min_cycle;Max_cycle;Signal;HPM_P1;HPM_P2
2023/07/16 00:00:27;;;;;;;2.80;2.15;;;22.70;99.90;;;;;;5012748;28;20030;-39
2023/07/16 00:02:53;;;;;;;3.72;2.15;;;22.70;99.90;;;;;;5012814;28;20393;-39
2023/07/16 00:05:19;;;;;;;3.10;2.15;;;22.70;99.90;;;;;;5012827;28;20041;-39
2023/07/16 00:07:44;;;;;;;3.42;2.10;;;22.70;99.90;;;;;;5012815;28;20029;-40
2023/07/16 00:10:10;;;;;;;3.45;2.20;;;22.70;99.90;;;;;;5012496;28;20465;-40
2023/07/16 00:12:35;;;;;;;3.17;2.08;;;22.70;99.90;;;;;;5012874;28;20037;-40
2023/07/16 00:15:01;;;;;;;3.25;2.03;;;22.70;99.90;;;;;;5012681;28;20029;-39
2023/07/16 00:17:27;;;;;;;3.08;2.15;;;22.70;99.90;;;;;;5012539;28;20042;-38
2023/07/16 00:19:52;;;;;;;4.07;1.92;;;22.70;99.90;;;;;;5012512;28;20516;-42
2023/07/16 00:22:18;;;;;;;2.80;1.77;;;22.70;99.90;;;;;;5012596;28;20037;-41
2023/07/16 00:24:43;;;;;;;2.42;1.70;;;22.70;99.90;;;;;;5012451;28;20057;-40
2023/07/16 00:27:09;;;;;;;3.60;1.83;;;22.70;99.90;;;;;;5012365;28;20041;-40
2023/07/16 00:29:35;;;;;;;3.45;1.98;;;22.70;99.90;;;;;;5012282;28;20076;-38
2023/07/16 00:32:00;;;;;;;2.53;1.73;;;22.70;99.90;;;;;;5012415;28;20076;-40
2023/07/16 00:34:26;;;;;;;3.15;1.85;;;22.70;99.90;;;;;;5012205;28;20053;-40
2023/07/16 00:36:51;;;;;;;2.45;1.83;;;22.70;99.90;;;;;;5012349;28;20058;-37
2023/07/16 00:39:17;;;;;;;3.40;1.83;;;22.70;99.90;;;;;;5012028;28;20022;-38
2023/07/16 00:41:43;;;;;;;3.83;1.75;;;22.70;99.90;;;;;;5012161;28;20072;-38
2023/07/16 00:44:08;;;;;;;2.33;1.70;;;22.70;99.90;;;;;;5012192;28;20034;-38
2023/07/16 00:46:34;;;;;;;2.00;1.60;;;22.70;99.90;;;;;;5012188;28;20389;-39
2023/07/16 00:49:01;;;;;;;2.40;1.90;;;22.70;99.90;;;;;;5011917;28;20026;-40
2023/07/16 00:51:28;;;;;;;2.53;1.73;;;22.70;99.90;;;;;;5012105;28;20089;-40
2023/07/16 00:53:54;;;;;;;2.33;1.60;;;22.70;99.90;;;;;;5011994;28;20022;-39
2023/07/16 00:56:21;;;;;;;4.15;1.58;;;22.70;99.90;;;;;;5012028;28;20393;-39
2023/07/16 00:58:46;;;;;;;2.60;1.70;;;22.70;99.90;;;;;;5012045;28;20548;-39
2023/07/16 01:01:12;;;;;;;2.00;1.27;;;22.70;99.90;;;;;;5012024;28;20109;-39
2023/07/16 01:03:38;;;;;;;1.73;1.30;;;22.60;99.90;;;;;;5011931;28;20083;-41
2023/07/16 01:06:30;;;;;;;3.00;1.73;;;22.60;99.90;;;;;;5011768;28;20081;-39
2023/07/16 01:09:08;;;;;;;2.67;1.58;;;22.60;99.90;;;;;;5011595;28;20022;-41
2023/07/16 01:11:35;;;;;;;1.95;1.58;;;22.60;99.90;;;;;;5011866;28;20392;-38
2023/07/16 01:14:01;;;;;;;2.85;1.77;;;22.60;99.90;;;;;;5012007;28;20116;-39
2023/07/16 01:16:27;;;;;;;1.73;1.30;;;22.70;99.90;;;;;;5010487;28;20034;-40
2023/07/16 01:18:53;;;;;;;1.70;1.42;;;22.70;99.90;;;;;;5011756;28;20041;-38
2023/07/16 01:21:20;;;;;;;2.30;1.40;;;22.60;99.90;;;;;;5011588;28;20042;-40
2023/07/16 01:24:01;;;;;;;1.60;1.30;;;22.60;99.90;;;;;;5011637;28;20513;-39
2023/07/16 01:27:09;;;;;;;2.45;1.63;;;22.60;99.90;;;;;;4993950;28;20033;-39
2023/07/16 01:29:41;;;;;;;2.65;1.40;;;22.60;99.90;;;;;;5011305;28;20037;-40
2023/07/16 01:32:10;;;;;;;1.98;1.40;;;22.60;99.90;;;;;;5011530;28;20018;-38
2023/07/16 01:34:37;;;;;;;3.47;1.42;;;22.60;99.90;;;;;;5011533;28;20022;-38
2023/07/16 01:37:03;;;;;;;1.73;1.30;;;22.60;99.90;;;;;;4994050;28;20026;-42
2023/07/16 01:39:32;;;;;;;1.60;1.25;;;22.60;99.90;;;;;;5011300;28;20323;-37
2023/07/16 01:41:58;;;;;;;2.50;1.40;;;22.50;99.90;;;;;;5011324;28;20076;-38
2023/07/16 01:44:23;;;;;;;2.45;1.40;;;22.60;99.90;;;;;;5011385;28;20030;-40
2023/07/16 01:47:10;;;;;;;1.95;1.30;;;22.50;99.90;;;;;;5015040;28;20034;-40
2023/07/16 01:49:35;;;;;;;2.35;1.45;;;22.60;99.90;;;;;;5015302;28;20378;-40
2023/07/16 01:52:03;;;;;;;1.90;1.20;;;22.50;99.90;;;;;;5015468;28;20033;-39
2023/07/16 01:54:29;;;;;;;1.92;1.40;;;22.50;99.90;;;;;;5015201;28;20033;-39
2023/07/16 01:56:54;;;;;;;2.53;1.23;;;22.50;99.90;;;;;;5015566;28;20018;-40
2023/07/16 01:59:20;;;;;;;2.83;1.42;;;22.50;99.90;;;;;;5015074;28;20393;-40
2023/07/16 02:01:45;;;;;;;1.23;1.02;;;22.50;99.90;;;;;;5015214;28;20040;-42
2023/07/16 02:04:11;;;;;;;2.88;1.35;;;22.50;99.90;;;;;;5015598;28;20037;-41
2023/07/16 02:06:37;;;;;;;1.60;1.20;;;22.50;99.90;;;;;;5015097;28;20115;-39
2023/07/16 02:09:02;;;;;;;1.25;1.10;;;22.50;99.90;;;;;;5014747;28;20026;-39
2023/07/16 02:11:29;;;;;;;2.00;1.23;;;22.50;99.90;;;;;;5015138;28;20021;-43
2023/07/16 02:13:54;;;;;;;3.42;1.33;;;22.50;99.90;;;;;;5015065;28;20110;-38
2023/07/16 02:16:20;;;;;;;2.38;1.20;;;22.50;99.90;;;;;;5015023;28;20113;-42
2023/07/16 02:18:46;;;;;;;3.92;1.50;;;22.50;99.90;;;;;;5014593;28;20057;-40
2023/07/16 02:21:12;;;;;;;1.73;1.02;;;22.50;99.90;;;;;;5014782;28;20053;-38
2023/07/16 02:23:37;;;;;;;1.65;1.13;;;22.50;99.90;;;;;;5014723;28;20030;-40
2023/07/16 02:26:03;;;;;;;1.27;1.10;;;22.50;99.90;;;;;;5014705;28;20030;-40
2023/07/16 02:28:28;;;;;;;1.70;1.30;;;22.50;99.90;;;;;;5014656;28;20025;-41
2023/07/16 02:30:54;;;;;;;1.20;1.10;;;22.50;99.90;;;;;;5014849;28;20481;-40
2023/07/16 02:33:20;;;;;;;1.65;1.15;;;22.50;99.90;;;;;;5014769;28;20030;-38
2023/07/16 02:35:48;;;;;;;1.25;1.15;;;22.50;99.90;;;;;;5014609;28;20412;-40
2023/07/16 02:38:14;;;;;;;2.00;1.10;;;22.50;99.90;;;;;;5014355;28;20044;-40
2023/07/16 02:40:47;;;;;;;1.85;1.10;;;22.50;99.90;;;;;;5014238;28;20482;-40
2023/07/16 02:43:13;;;;;;;1.83;1.13;;;22.50;99.90;;;;;;5014597;28;20034;-40
2023/07/16 02:45:39;;;;;;;1.88;1.23;;;22.50;99.90;;;;;;5014358;28;20113;-40
2023/07/16 02:48:06;;;;;;;1.35;1.20;;;22.50;99.90;;;;;;5014329;28;20014;-39
2023/07/16 02:50:36;;;;;;;2.55;0.95;;;22.50;99.90;;;;;;5014089;28;20513;-38
2023/07/16 02:53:06;;;;;;;1.48;0.88;;;22.50;99.90;;;;;;5014268;28;20034;-40
2023/07/16 02:55:32;;;;;;;2.08;1.10;;;22.50;99.90;;;;;;5014191;28;20105;-39
2023/07/16 02:57:57;;;;;;;2.47;1.20;;;22.40;99.90;;;;;;5014082;28;20105;-40
2023/07/16 03:00:23;;;;;;;1.25;0.90;;;22.50;99.90;;;;;;5014205;28;20084;-38
2023/07/16 03:02:49;;;;;;;1.98;1.20;;;22.40;99.90;;;;;;5014197;28;20504;-40
2023/07/16 03:05:18;;;;;;;2.10;1.17;;;22.50;99.90;;;;;;5013913;28;20048;-39
2023/07/16 03:07:44;;;;;;;1.80;0.90;;;22.40;99.90;;;;;;5013944;28;20412;-39
2023/07/16 03:10:10;;;;;;;2.67;0.95;;;22.50;99.90;;;;;;5013783;28;20026;-41
2023/07/16 03:12:35;;;;;;;1.88;1.05;;;22.50;99.90;;;;;;5013913;28;20061;-39
2023/07/16 03:15:01;;;;;;;2.35;1.27;;;22.40;99.90;;;;;;5013888;28;20018;-41
2023/07/16 03:17:26;;;;;;;1.80;1.00;;;22.50;99.90;;;;;;5013744;28;20030;-39
2023/07/16 03:19:52;;;;;;;3.60;1.23;;;22.40;99.90;;;;;;5013566;28;20057;-40
2023/07/16 03:22:17;;;;;;;1.50;1.02;;;22.40;99.90;;;;;;5013798;28;20029;-40
2023/07/16 03:24:43;;;;;;;1.58;1.20;;;22.40;99.90;;;;;;5013689;28;20018;-38
2023/07/16 03:27:09;;;;;;;3.70;1.15;;;22.40;99.90;;;;;;5013648;28;20242;-40
2023/07/16 03:29:34;;;;;;;4.35;1.02;;;22.40;99.90;;;;;;5013504;28;20029;-40
2023/07/16 03:32:00;;;;;;;2.28;1.35;;;22.40;99.90;;;;;;5013570;28;20021;-40
2023/07/16 03:34:26;;;;;;;2.45;1.38;;;22.40;99.90;;;;;;5013976;28;20022;-42
2023/07/16 03:36:52;;;;;;;1.50;1.20;;;22.40;99.90;;;;;;5013653;28;20242;-42
2023/07/16 03:39:17;;;;;;;3.42;1.00;;;22.40;99.90;;;;;;5013205;28;20045;-38
2023/07/16 03:41:43;;;;;;;1.63;0.98;;;22.40;99.90;;;;;;5013454;28;20033;-38
2023/07/16 03:44:09;;;;;;;1.83;1.00;;;22.40;99.90;;;;;;5013332;28;20131;-39
2023/07/16 03:46:35;;;;;;;1.40;0.90;;;22.30;99.90;;;;;;5013215;28;20026;-40
2023/07/16 03:49:01;;;;;;;1.67;1.00;;;22.40;99.90;;;;;;5012875;28;20390;-39
2023/07/16 03:51:26;;;;;;;3.47;1.05;;;22.30;99.90;;;;;;5013612;28;20026;-39
2023/07/16 03:53:52;;;;;;;2.38;1.13;;;22.30;99.90;;;;;;5013570;28;20054;-39
2023/07/16 03:56:17;;;;;;;1.88;1.10;;;22.30;99.90;;;;;;5013155;28;20477;-40
2023/07/16 03:58:43;;;;;;;1.80;1.00;;;22.40;99.90;;;;;;5012868;28;20026;-42
2023/07/16 04:01:09;;;;;;;1.95;0.90;;;22.30;99.90;;;;;;5012890;28;20033;-43
2023/07/16 04:03:35;;;;;;;2.50;1.10;;;22.30;99.90;;;;;;5012852;28;20022;-39
2023/07/16 04:06:05;;;;;;;4.47;1.38;;;22.30;99.90;;;;;;5012934;28;20054;-39
2023/07/16 04:08:31;;;;;;;5.13;1.00;;;22.30;99.90;;;;;;5012299;28;20652;-41
2023/07/16 04:10:57;;;;;;;1.10;0.88;;;22.30;99.90;;;;;;5012743;28;20087;-40
2023/07/16 04:13:23;;;;;;;2.85;0.90;;;22.30;99.90;;;;;;5012788;28;20021;-41
2023/07/16 04:15:49;;;;;;;1.58;1.00;;;22.30;99.90;;;;;;5012847;28;20375;-39
2023/07/16 04:18:15;;;;;;;4.88;1.33;;;22.30;99.90;;;;;;5012394;28;20037;-38
2023/07/16 04:20:40;;;;;;;2.67;1.10;;;22.30;99.90;;;;;;5012597;28;20030;-38
2023/07/16 04:23:06;;;;;;;3.15;0.90;;;22.30;99.90;;;;;;5012508;28;20026;-40
2023/07/16 04:25:32;;;;;;;3.47;1.00;;;22.30;99.90;;;;;;5012505;28;20511;-42
2023/07/16 04:27:57;;;;;;;3.35;1.02;;;22.30;99.90;;;;;;5012454;28;20054;-41
2023/07/16 04:30:23;;;;;;;4.25;0.85;;;22.30;99.90;;;;;;5012313;28;20068;-39
2023/07/16 04:32:49;;;;;;;4.22;1.00;;;22.30;99.90;;;;;;5012456;28;20033;-38
2023/07/16 04:35:14;;;;;;;2.08;1.00;;;22.30;99.90;;;;;;5012421;28;20537;-40
2023/07/16 04:37:40;;;;;;;2.47;1.20;;;22.30;99.90;;;;;;5012273;28;20029;-40
2023/07/16 04:40:07;;;;;;;3.17;1.10;;;22.30;99.90;;;;;;5012203;28;20149;-39
2023/07/16 04:42:32;;;;;;;2.17;0.88;;;22.30;99.90;;;;;;5012353;28;20022;-42
2023/07/16 04:44:58;;;;;;;2.20;0.90;;;22.30;99.90;;;;;;5012343;28;20045;-40
2023/07/16 04:47:23;;;;;;;1.50;0.80;;;22.30;99.90;;;;;;5011953;28;20397;-40
2023/07/16 04:49:49;;;;;;;1.00;0.90;;;22.30;99.90;;;;;;5011997;28;20026;-40
2023/07/16 04:52:15;;;;;;;3.63;1.20;;;22.30;99.90;;;;;;4994489;28;20026;-39
2023/07/16 04:54:40;;;;;;;2.25;1.08;;;22.30;99.90;;;;;;5012101;28;20026;-40
2023/07/16 04:57:07;;;;;;;1.38;0.93;;;22.30;99.90;;;;;;5012102;28;20530;-40
2023/07/16 04:59:33;;;;;;;1.92;0.90;;;22.30;99.90;;;;;;5011833;28;20073;-40
2023/07/16 05:01:58;;;;;;;3.83;1.10;;;22.20;99.90;;;;;;5011831;28;20025;-40
2023/07/16 05:04:24;;;;;;;1.73;0.95;;;22.20;99.90;;;;;;5011913;28;20030;-39
2023/07/16 05:06:50;;;;;;;2.53;1.15;;;22.30;99.90;;;;;;5011817;28;20025;-40
2023/07/16 05:09:15;;;;;;;1.63;0.95;;;22.30;99.90;;;;;;5011543;28;20029;-40
2023/07/16 05:11:41;;;;;;;3.40;1.10;;;22.20;99.90;;;;;;5012055;28;20033;-39
2023/07/16 05:14:06;;;;;;;3.58;1.10;;;22.20;99.90;;;;;;5011741;28;20508;-39
2023/07/16 05:16:32;;;;;;;2.80;1.15;;;22.20;99.90;;;;;;5011677;28;20097;-40
2023/07/16 05:18:58;;;;;;;4.22;0.93;;;22.20;99.90;;;;;;5011363;28;20160;-41
2023/07/16 05:21:23;;;;;;;6.22;1.30;;;22.20;99.90;;;;;;5011027;28;20038;-40
2023/07/16 05:23:49;;;;;;;1.75;1.00;;;22.20;99.90;;;;;;5011604;28;20073;-40
2023/07/16 05:26:14;;;;;;;2.72;1.02;;;22.20;99.90;;;;;;5011557;28;20549;-39
2023/07/16 05:28:40;;;;;;;3.72;1.30;;;22.30;99.90;;;;;;5011486;28;20026;-39
2023/07/16 05:31:05;;;;;;;3.03;1.17;;;22.20;99.90;;;;;;5011283;28;20477;-39
2023/07/16 05:33:31;;;;;;;4.07;1.08;;;22.20;99.90;;;;;;5011499;28;20104;-42
2023/07/16 05:35:57;;;;;;;3.05;1.13;;;22.20;99.90;;;;;;5011514;28;20362;-40
2023/07/16 05:38:22;;;;;;;2.10;1.00;;;22.20;99.90;;;;;;5011358;28;20036;-39
2023/07/16 05:40:48;;;;;;;2.30;0.90;;;22.20;99.90;;;;;;5011277;28;20034;-40
2023/07/16 05:43:14;;;;;;;1.45;1.00;;;22.20;99.90;;;;;;5011492;28;20520;-38
2023/07/16 05:45:40;;;;;;;1.73;1.10;;;22.20;99.90;;;;;;5011332;28;20105;-39
2023/07/16 05:48:06;;;;;;;2.60;0.95;;;22.20;99.90;;;;;;5011659;28;20105;-39
2023/07/16 05:50:32;;;;;;;5.93;1.30;;;22.20;99.90;;;;;;5011215;28;20033;-40
2023/07/16 05:52:57;;;;;;;1.80;0.95;;;22.20;99.90;;;;;;5011323;28;20014;-39
2023/07/16 05:55:23;;;;;;;3.53;1.40;;;22.20;99.90;;;;;;5011466;28;20022;-38
2023/07/16 05:57:50;;;;;;;1.35;1.00;;;22.20;99.90;;;;;;5011315;28;20030;-40
2023/07/16 06:00:15;;;;;;;4.65;1.10;;;22.20;99.90;;;;;;5011011;28;20029;-38
2023/07/16 06:02:41;;;;;;;3.10;1.15;;;22.20;99.90;;;;;;5011259;28;20026;-41
2023/07/16 06:05:07;;;;;;;4.22;1.30;;;22.20;99.90;;;;;;5011437;28;20553;-40
2023/07/16 06:07:32;;;;;;;2.55;1.17;;;22.20;99.90;;;;;;5011011;28;20405;-38
2023/07/16 06:09:58;;;;;;;4.25;1.13;;;22.20;99.90;;;;;;5011006;28;20018;-40
2023/07/16 06:12:24;;;;;;;2.83;0.95;;;22.20;99.90;;;;;;5011147;28;20113;-40
2023/07/16 06:14:50;;;;;;;3.72;1.13;;;22.20;99.90;;;;;;5011037;28;20173;-40
2023/07/16 06:17:15;;;;;;;1.98;0.98;;;22.10;99.90;;;;;;5010997;28;20073;-42
2023/07/16 06:19:42;;;;;;;4.13;1.20;;;22.20;99.90;;;;;;5011013;28;20034;-39
2023/07/16 06:22:08;;;;;;;4.00;1.10;;;22.10;99.90;;;;;;5011072;28;20108;-40
2023/07/16 06:24:34;;;;;;;3.38;0.98;;;22.20;99.90;;;;;;5011114;28;20026;-39
2023/07/16 06:27:00;;;;;;;1.85;0.98;;;22.20;99.90;;;;;;5011090;28;20356;-39
2023/07/16 06:29:26;;;;;;;2.25;1.10;;;22.10;99.90;;;;;;5010706;28;20026;-40
2023/07/16 06:31:58;;;;;;;1.98;1.00;;;22.20;99.90;;;;;;5012567;28;20022;-39
2023/07/16 06:34:24;;;;;;;3.30;1.10;;;22.20;99.90;;;;;;5014718;28;20515;-39
2023/07/16 06:36:50;;;;;;;1.98;1.17;;;22.20;99.90;;;;;;5014553;28;20485;-40
2023/07/16 06:39:16;;;;;;;1.65;1.02;;;22.20;99.90;;;;;;5014424;28;20041;-38
2023/07/16 06:41:41;;;;;;;2.60;0.88;;;22.10;99.90;;;;;;5014503;28;20030;-41
2023/07/16 06:44:07;;;;;;;2.25;1.00;;;22.20;99.90;;;;;;5014528;28;20072;-41
2023/07/16 06:46:33;;;;;;;2.30;1.10;;;22.20;99.90;;;;;;5014533;28;20030;-39
2023/07/16 06:48:58;;;;;;;3.13;1.10;;;22.20;99.90;;;;;;5014166;28;20048;-40
2023/07/16 06:51:24;;;;;;;4.47;1.00;;;22.20;99.90;;;;;;5014342;28;20025;-40
2023/07/16 06:53:50;;;;;;;3.45;1.08;;;22.20;99.90;;;;;;5014310;28;20516;-39
2023/07/16 06:56:15;;;;;;;1.70;1.02;;;22.20;99.90;;;;;;5014305;28;20029;-39
2023/07/16 06:58:41;;;;;;;4.20;0.98;;;22.20;99.90;;;;;;5013960;28;20034;-40
2023/07/16 07:01:07;;;;;;;3.55;1.23;;;22.20;99.90;;;;;;5014265;28;20029;-41
2023/07/16 07:03:35;;;;;;;3.58;1.25;;;22.20;99.90;;;;;;5014357;28;20026;-40
2023/07/16 07:06:04;;;;;;;2.67;1.10;;;22.20;99.90;;;;;;5014008;28;20049;-40
2023/07/16 07:08:30;;;;;;;3.05;1.20;;;22.20;99.90;;;;;;5014871;28;20026;-42
2023/07/16 07:10:55;;;;;;;4.25;1.20;;;22.20;99.90;;;;;;5013885;28;20462;-42
2023/07/16 07:13:21;;;;;;;4.30;1.27;;;22.20;99.90;;;;;;5013891;28;20076;-39
2023/07/16 07:15:47;;;;;;;2.35;0.90;;;22.20;99.90;;;;;;5014033;28;20108;-40
2023/07/16 07:18:13;;;;;;;1.92;1.05;;;22.20;99.90;;;;;;4996916;28;20329;-39
2023/07/16 07:20:40;;;;;;;1.65;1.00;;;22.20;99.90;;;;;;5013602;28;20392;-39
2023/07/16 07:23:06;;;;;;;3.47;1.20;;;22.20;99.90;;;;;;5013929;28;20022;-40
2023/07/16 07:25:31;;;;;;;2.17;1.00;;;22.20;99.90;;;;;;5013739;28;20107;-39
2023/07/16 07:27:57;;;;;;;4.05;1.20;;;22.20;99.90;;;;;;5013619;28;20021;-40
2023/07/16 07:30:22;;;;;;;2.17;1.10;;;22.20;99.90;;;;;;5013461;28;20021;-42
2023/07/16 07:32:48;;;;;;;2.05;0.90;;;22.20;99.90;;;;;;5013554;28;20465;-40
2023/07/16 07:35:14;;;;;;;1.60;1.00;;;22.20;99.90;;;;;;4996218;28;20022;-39
2023/07/16 07:37:39;;;;;;;1.40;0.98;;;22.20;99.90;;;;;;5013479;28;20128;-40
2023/07/16 07:40:05;;;;;;;2.85;1.23;;;22.20;99.90;;;;;;5013725;28;20108;-39
2023/07/16 07:42:31;;;;;;;4.10;1.15;;;22.30;99.90;;;;;;5012813;28;20118;-40
2023/07/16 07:44:57;;;;;;;2.10;1.00;;;22.20;99.90;;;;;;5012988;28;20462;-39
2023/07/16 07:47:22;;;;;;;3.05;1.13;;;22.30;99.90;;;;;;5013227;28;20493;-40
2023/07/16 07:49:48;;;;;;;2.30;1.10;;;22.30;99.90;;;;;;5013007;28;20493;-39
2023/07/16 07:52:13;;;;;;;1.60;0.90;;;22.30;99.90;;;;;;5013272;28;20030;-40
2023/07/16 07:54:39;;;;;;;1.42;0.90;;;22.30;99.90;;;;;;5013170;28;20101;-42
2023/07/16 07:57:05;;;;;;;2.20;1.05;;;22.30;99.90;;;;;;5013184;28;20088;-40
2023/07/16 07:59:31;;;;;;;1.40;0.85;;;22.20;99.90;;;;;;5013269;28;20029;-39
2023/07/16 08:01:58;;;;;;;1.77;0.93;;;22.30;99.90;;;;;;5013104;28;20030;-38
2023/07/16 08:04:24;;;;;;;1.55;0.95;;;22.30;99.90;;;;;;5012979;28;20049;-40
2023/07/16 08:06:51;;;;;;;1.10;0.98;;;22.30;99.90;;;;;;5012890;28;20029;-40
2023/07/16 08:09:17;;;;;;;2.45;0.95;;;22.30;99.90;;;;;;5012604;28;20073;-40
2023/07/16 08:11:42;;;;;;;2.05;1.00;;;22.30;99.90;;;;;;5013233;28;20029;-39
2023/07/16 08:14:08;;;;;;;2.55;1.10;;;22.30;99.90;;;;;;5012843;28;20033;-40
2023/07/16 08:16:33;;;;;;;2.40;0.93;;;22.30;99.90;;;;;;5012814;28;20034;-39
2023/07/16 08:18:59;;;;;;;2.05;1.00;;;22.30;99.90;;;;;;5012279;28;20034;-41
2023/07/16 08:21:25;;;;;;;2.13;1.15;;;22.30;99.90;;;;;;5012812;28;20062;-42
2023/07/16 08:23:50;;;;;;;1.73;1.05;;;22.30;99.90;;;;;;5012586;28;20114;-39
2023/07/16 08:26:17;;;;;;;1.75;0.90;;;22.30;99.90;;;;;;5012533;28;20034;-39
2023/07/16 08:28:42;;;;;;;2.03;0.95;;;22.30;99.90;;;;;;5012467;28;20033;-42
2023/07/16 08:31:09;;;;;;;5.53;1.10;;;22.30;99.90;;;;;;5012671;28;20018;-40
2023/07/16 08:33:34;;;;;;;1.92;0.95;;;22.30;99.90;;;;;;5012458;28;20022;-40
2023/07/16 08:36:00;;;;;;;3.80;1.00;;;22.30;99.90;;;;;;5012450;28;20433;-39
2023/07/16 08:38:26;;;;;;;2.72;1.13;;;22.30;99.90;;;;;;5012349;28;20026;-39
2023/07/16 08:40:51;;;;;;;2.30;1.10;;;22.30;99.90;;;;;;5012250;28;20022;-39
2023/07/16 08:43:18;;;;;;;2.67;1.10;;;22.30;99.90;;;;;;5012288;28;20053;-40
2023/07/16 08:45:45;;;;;;;2.55;1.00;;;22.30;99.90;;;;;;5012271;28;20481;-40
2023/07/16 08:48:12;;;;;;;1.45;0.93;;;22.30;99.90;;;;;;5012107;28;20029;-38
2023/07/16 08:50:38;;;;;;;1.27;0.82;;;22.30;99.90;;;;;;5011941;28;20041;-38
2023/07/16 08:53:07;;;;;;;1.95;1.10;;;22.30;99.90;;;;;;5012076;28;20033;-39
2023/07/16 08:55:36;;;;;;;1.98;0.98;;;22.30;99.90;;;;;;5012473;28;20370;-39
2023/07/16 08:58:04;;;;;;;2.25;0.80;;;22.30;99.90;;;;;;4994550;28;20076;-41
2023/07/16 09:00:30;;;;;;;2.95;1.10;;;22.30;99.90;;;;;;5011826;28;20032;-40
2023/07/16 09:02:56;;;;;;;1.60;0.90;;;22.30;99.90;;;;;;5011933;28;20489;-39
2023/07/16 09:05:22;;;;;;;4.28;1.00;;;22.30;99.90;;;;;;5011928;28;20033;-40
2023/07/16 09:07:49;;;;;;;1.80;1.08;;;22.30;99.90;;;;;;5011597;28;20109;-41
2023/07/16 09:10:15;;;;;;;1.80;1.00;;;22.30;99.90;;;;;;5011616;28;20072;-39
2023/07/16 09:12:45;;;;;;;2.30;0.85;;;22.40;99.90;;;;;;5011855;28;20527;-39
2023/07/16 09:15:12;;;;;;;1.20;0.90;;;22.40;99.90;;;;;;5011919;28;20084;-42
2023/07/16 09:17:38;;;;;;;1.45;0.90;;;22.40;99.90;;;;;;5011575;28;20057;-40
2023/07/16 09:20:06;;;;;;;2.28;0.80;;;22.40;99.90;;;;;;5011571;28;20025;-38
2023/07/16 09:22:33;;;;;;;1.52;1.00;;;22.30;99.90;;;;;;5011600;28;20088;-40
2023/07/16 09:25:03;;;;;;;3.92;0.90;;;22.40;99.90;;;;;;5011615;28;20030;-39
2023/07/16 09:27:29;;;;;;;2.20;1.00;;;22.40;99.90;;;;;;5011625;28;20030;-40
2023/07/16 09:29:55;;;;;;;1.30;0.70;;;22.40;99.90;;;;;;5011364;28;20050;-39
2023/07/16 09:32:20;;;;;;;2.10;0.90;;;22.40;99.90;;;;;;5011561;28;20064;-40
2023/07/16 09:34:49;;;;;;;1.20;0.70;;;22.40;99.90;;;;;;5011374;28;20114;-40
2023/07/16 09:37:17;;;;;;;1.73;0.95;;;22.40;99.90;;;;;;5011409;28;20033;-41
2023/07/16 09:39:45;;;;;;;1.65;1.00;;;22.40;99.90;;;;;;5011306;28;20076;-40
2023/07/16 09:42:11;;;;;;;1.50;0.90;;;22.40;99.90;;;;;;5011504;28;20096;-40
2023/07/16 09:44:37;;;;;;;1.67;0.80;;;22.40;99.90;;;;;;5011463;28;20121;-40
2023/07/16 09:47:03;;;;;;;0.88;0.65;;;22.40;99.90;;;;;;5011322;28;20038;-43
2023/07/16 09:49:30;;;;;;;1.88;0.90;;;22.40;99.90;;;;;;5011078;28;20478;-40
2023/07/16 09:52:01;;;;;;;1.30;0.90;;;22.40;99.90;;;;;;5011476;28;20084;-40
2023/07/16 09:54:32;;;;;;;2.05;1.00;;;22.40;99.90;;;;;;5011666;28;20065;-38
2023/07/16 09:57:00;;;;;;;1.10;0.70;;;22.40;99.90;;;;;;5011386;28;20104;-40
2023/07/16 09:59:29;;;;;;;2.15;0.90;;;22.40;99.90;;;;;;5011005;28;20101;-40
2023/07/16 10:01:56;;;;;;;2.25;1.05;;;22.50;99.90;;;;;;5011198;28;20397;-40
2023/07/16 10:04:22;;;;;;;1.58;0.82;;;22.40;99.90;;;;;;5011241;28;20041;-39
2023/07/16 10:06:55;;;;;;;1.70;1.00;;;22.50;99.90;;;;;;5012795;28;20051;-39
2023/07/16 10:09:41;;;;;;;1.03;0.80;;;22.50;99.90;;;;;;5014946;28;20033;-38
2023/07/16 10:12:10;;;;;;;2.75;1.10;;;22.50;99.90;;;;;;5015142;28;20046;-39
2023/07/16 10:14:47;;;;;;;1.40;0.95;;;22.50;99.90;;;;;;5014946;28;20026;-38
2023/07/16 10:17:17;;;;;;;1.23;0.70;;;22.50;99.90;;;;;;5014840;28;20493;-40
2023/07/16 10:20:07;;;;;;;1.30;0.80;;;22.50;99.90;;;;;;5014739;28;20494;-41
2023/07/16 10:22:46;;;;;;;1.48;0.90;;;22.50;99.90;;;;;;5009647;28;20525;-39
2023/07/16 10:25:18;;;;;;;2.75;1.08;;;22.50;99.90;;;;;;5014876;28;20095;-39
2023/07/16 10:27:48;;;;;;;1.52;0.80;;;22.50;99.90;;;;;;5014676;28;20037;-40
2023/07/16 10:30:15;;;;;;;1.40;0.70;;;22.50;99.90;;;;;;5014537;28;20025;-40
2023/07/16 10:32:41;;;;;;;1.90;0.70;;;22.50;99.90;;;;;;5014738;28;20566;-40
2023/07/16 10:35:08;;;;;;;1.38;0.82;;;22.50;99.90;;;;;;5014606;28;20479;-39
2023/07/16 10:37:35;;;;;;;1.75;0.90;;;22.50;99.90;;;;;;5014559;28;20034;-39
2023/07/16 10:40:04;;;;;;;1.73;0.77;;;22.50;99.90;;;;;;5014469;28;20060;-40
2023/07/16 10:42:31;;;;;;;1.17;0.80;;;22.50;99.90;;;;;;5014683;28;20041;-39
2023/07/16 10:45:02;;;;;;;2.30;1.00;;;22.50;99.90;;;;;;5014479;28;20030;-40
2023/07/16 10:47:35;;;;;;;2.47;0.90;;;22.50;99.90;;;;;;5014362;28;20087;-38
2023/07/16 10:50:05;;;;;;;2.25;0.93;;;22.50;99.90;;;;;;5014202;28;20044;-38
2023/07/16 10:52:31;;;;;;;2.72;1.17;;;22.50;99.90;;;;;;5014336;28;20020;-41
2023/07/16 10:54:58;;;;;;;4.97;1.52;;;22.50;99.90;;;;;;5014654;28;20101;-39
2023/07/16 10:57:24;;;;;;;5.88;1.58;;;22.50;99.90;;;;;;5014217;28;20477;-40
2023/07/16 10:59:55;;;;;;;10.98;1.60;;;22.50;99.90;;;;;;5013965;28;20111;-39
2023/07/16 11:02:22;;;;;;;3.13;1.50;;;22.50;99.90;;;;;;5014172;28;20033;-39
2023/07/16 11:04:48;;;;;;;3.00;1.50;;;22.50;99.90;;;;;;5014195;28;20053;-40
2023/07/16 11:07:15;;;;;;;2.35;1.30;;;22.50;99.90;;;;;;5014031;28;20108;-38
2023/07/16 11:09:44;;;;;;;4.93;1.20;;;22.50;99.90;;;;;;5013952;28;20257;-40
2023/07/16 11:12:19;;;;;;;4.13;1.35;;;22.60;99.90;;;;;;5014013;28;20026;-40
2023/07/16 11:14:49;;;;;;;2.95;1.42;;;22.60;99.90;;;;;;5013846;28;20092;-41
2023/07/16 11:17:16;;;;;;;2.95;1.45;;;22.50;99.90;;;;;;5013237;28;20113;-40
2023/07/16 11:19:45;;;;;;;1.83;1.25;;;22.60;99.90;;;;;;5012971;28;20501;-40
2023/07/16 11:22:11;;;;;;;4.57;1.58;;;22.50;99.90;;;;;;5013924;28;20026;-39
2023/07/16 11:24:41;;;;;;;2.67;1.30;;;22.60;99.90;;;;;;5013818;28;20076;-40
2023/07/16 11:27:21;;;;;;;5.13;1.40;;;22.50;99.90;;;;;;5013515;28;20076;-39
2023/07/16 11:29:50;;;;;;;2.75;1.52;;;22.50;99.90;;;;;;5013531;28;20107;-40
2023/07/16 11:32:34;;;;;;;2.90;1.40;;;22.50;99.90;;;;;;5013624;28;20029;-40
2023/07/16 11:35:01;;;;;;;2.67;1.25;;;22.60;99.90;;;;;;4996049;28;20273;-42
2023/07/16 11:37:31;;;;;;;3.35;1.45;;;22.60;99.90;;;;;;5013533;28;20485;-39
2023/07/16 11:40:03;;;;;;;3.53;1.25;;;22.60;99.90;;;;;;5013302;28;20037;-39
2023/07/16 11:42:35;;;;;;;1.95;1.25;;;22.60;99.90;;;;;;5013423;28;20501;-39
2023/07/16 11:45:02;;;;;;;2.67;1.20;;;22.60;99.90;;;;;;5013397;28;20103;-39
2023/07/16 11:47:28;;;;;;;1.85;1.20;;;22.60;99.90;;;;;;5013595;28;20374;-43
2023/07/16 11:49:54;;;;;;;4.07;1.00;;;22.60;99.90;;;;;;5013114;28;20014;-39
2023/07/16 11:52:25;;;;;;;2.20;1.20;;;22.60;99.90;;;;;;5013137;28;20026;-39
2023/07/16 11:54:56;;;;;;;2.50;1.20;;;22.70;99.90;;;;;;5013186;28;20017;-39
2023/07/16 11:57:21;;;;;;;1.83;0.98;;;22.60;99.90;;;;;;5013186;28;20034;-40
2023/07/16 11:59:47;;;;;;;3.65;1.13;;;22.60;99.90;;;;;;5012922;28;20366;-39
2023/07/16 12:02:13;;;;;;;1.50;1.00;;;22.70;99.90;;;;;;5013032;28;20489;-40
2023/07/16 12:04:39;;;;;;;3.15;1.25;;;22.60;99.90;;;;;;5012940;28;20029;-40
2023/07/16 12:07:04;;;;;;;1.88;1.13;;;22.70;99.90;;;;;;5012890;28;20040;-39
2023/07/16 12:09:30;;;;;;;1.55;1.10;;;22.60;99.90;;;;;;5012689;28;20028;-37
2023/07/16 12:11:56;;;;;;;1.85;1.17;;;22.60;99.90;;;;;;5012899;28;20106;-40
2023/07/16 12:14:22;;;;;;;1.92;1.30;;;22.60;99.90;;;;;;5013108;28;20034;-39
2023/07/16 12:16:47;;;;;;;2.15;1.23;;;22.60;99.90;;;;;;5012833;28;20072;-40
2023/07/16 12:19:13;;;;;;;2.28;1.17;;;22.60;99.90;;;;;;5012417;28;20042;-39
2023/07/16 12:21:39;;;;;;;2.80;1.15;;;22.60;99.90;;;;;;5012809;28;20338;-38
2023/07/16 12:24:05;;;;;;;2.08;1.50;;;22.60;99.90;;;;;;5012930;28;20448;-42
2023/07/16 12:26:31;;;;;;;2.38;1.27;;;22.70;99.90;;;;;;5012500;28;20029;-40
2023/07/16 12:28:56;;;;;;;2.05;1.08;;;22.70;99.90;;;;;;5011950;28;20026;-39
2023/07/16 12:31:22;;;;;;;1.75;1.00;;;22.60;99.90;;;;;;5012510;28;20026;-39
2023/07/16 12:33:48;;;;;;;1.63;0.93;;;22.70;99.90;;;;;;5012478;28;20065;-41
2023/07/16 12:36:15;;;;;;;1.85;1.20;;;22.60;99.90;;;;;;4994719;28;20030;-42
2023/07/16 12:38:41;;;;;;;4.50;1.30;;;22.70;99.90;;;;;;5012270;28;20085;-40
2023/07/16 12:41:07;;;;;;;1.65;1.00;;;22.70;99.90;;;;;;5012274;28;20033;-43
2023/07/16 12:43:34;;;;;;;2.72;1.40;;;22.70;99.90;;;;;;5012245;28;20515;-40
2023/07/16 12:46:03;;;;;;;1.20;0.95;;;22.70;99.90;;;;;;5012235;28;20030;-40